Time;durP1;ratioP1;P1;durP2;ratioP2;P2;SDS_P1;SDS_P2;PMS_P1;PMS_P2;Temp;Humidity;BMP_temperature;BMP_pressure;BME280_temperature;BME280_humidity;BME280_pressure;Samples;Min_cycle;Max_cycle;Signal;HPM_P1;HPM_P2
2023/12/12 00:00:03;;;;;;;14.03;2.23;;;;;;;;;;5034610;28;20212;-64
2023/12/12 00:02:31;;;;;;;11.43;1.73;;;;;;;;;;5048763;28;20211;-64
2023/12/12 00:04:59;;;;;;;7.20;1.80;;;;;;;;;;5041261;28;20214;-64
2023/12/12 00:07:26;;;;;;;11.23;2.07;;;;;;;;;;5036609;28;20303;-64
2023/12/12 00:09:53;;;;;;;10.37;2.00;;;;;;;;;;5038408;28;20263;-64
2023/12/12 00:12:20;;;;;;;11.13;2.07;;;;;;;;;;5037348;28;20219;-64
2023/12/12 00:14:47;;;;;;;11.73;1.67;;;;;;;;;;5036024;28;20661;-64
2023/12/12 00:17:14;;;;;;;7.47;1.93;;;;;;;;;;5039291;28;20243;-63
2023/12/12 00:19:43;;;;;;;19.30;1.87;;;;;;;;;;5045412;28;20203;-64
2023/12/12 00:22:11;;;;;;;14.20;2.77;;;;;;;;;;5035989;28;20491;-63
2023/12/12 00:24:38;;;;;;;9.93;1.80;;;;;;;;;;5028831;28;20203;-63
2023/12/12 00:27:05;;;;;;;13.17;2.40;;;;;;;;;;5028476;28;20201;-63
2023/12/12 00:29:35;;;;;;;8.80;2.30;;;;;;;;;;5030607;28;20212;-64
2023/12/12 00:32:02;;;;;;;10.90;2.20;;;;;;;;;;5035099;28;20215;-63
2023/12/12 00:34:29;;;;;;;4.80;2.07;;;;;;;;;;5035718;28;20216;-63
2023/12/12 00:36:58;;;;;;;6.00;2.30;;;;;;;;;;5028212;28;20413;-64
2023/12/12 00:39:25;;;;;;;8.10;2.07;;;;;;;;;;5047727;28;20215;-63
2023/12/12 00:42:07;;;;;;;9.77;1.90;;;;;;;;;;5034024;28;20580;-63
2023/12/12 00:44:35;;;;;;;8.50;2.43;;;;;;;;;;5025981;28;20208;-63
2023/12/12 00:47:02;;;;;;;6.53;2.27;;;;;;;;;;5043797;28;20299;-63
2023/12/12 00:49:29;;;;;;;8.73;2.27;;;;;;;;;;5036370;28;20208;-63
2023/12/12 00:51:56;;;;;;;11.77;2.40;;;;;;;;;;5028059;28;20204;-63
2023/12/12 00:54:24;;;;;;;10.33;1.93;;;;;;;;;;5028458;28;20678;-64
2023/12/12 00:56:51;;;;;;;4.67;1.60;;;;;;;;;;5038902;28;20286;-64
2023/12/12 00:59:18;;;;;;;10.70;1.90;;;;;;;;;;5027620;28;20212;-64
2023/12/12 01:01:45;;;;;;;8.17;1.57;;;;;;;;;;5042840;28;20204;-64
2023/12/12 01:04:12;;;;;;;12.83;2.43;;;;;;;;;;5037446;28;20204;-64
2023/12/12 01:06:39;;;;;;;8.40;1.87;;;;;;;;;;5042227;28;20208;-64
2023/12/12 01:09:06;;;;;;;9.37;2.23;;;;;;;;;;5045825;28;20221;-63
2023/12/12 01:11:35;;;;;;;8.67;2.07;;;;;;;;;;5035338;28;20622;-64
2023/12/12 01:14:02;;;;;;;10.23;2.10;;;;;;;;;;5038679;28;20250;-64
2023/12/12 01:16:29;;;;;;;9.10;2.37;;;;;;;;;;5027650;28;20248;-63
2023/12/12 01:18:56;;;;;;;14.53;1.93;;;;;;;;;;5028715;28;20213;-63
2023/12/12 01:21:23;;;;;;;6.80;2.03;;;;;;;;;;5027379;28;20211;-63
2023/12/12 01:23:50;;;;;;;10.40;1.70;;;;;;;;;;5028323;28;20239;-63
2023/12/12 01:26:17;;;;;;;10.47;2.30;;;;;;;;;;5042518;28;20211;-63
2023/12/12 01:28:46;;;;;;;12.13;2.57;;;;;;;;;;5046469;28;20226;-63
2023/12/12 01:31:13;;;;;;;11.30;2.13;;;;;;;;;;5035452;28;20208;-64
2023/12/12 01:33:40;;;;;;;5.83;1.90;;;;;;;;;;5046547;28;20208;-63
2023/12/12 01:36:07;;;;;;;7.23;2.17;;;;;;;;;;5046932;28;20235;-63
2023/12/12 01:38:35;;;;;;;7.83;1.67;;;;;;;;;;5047034;28;20203;-63
2023/12/12 01:41:02;;;;;;;4.60;2.37;;;;;;;;;;5043831;28;20569;-63
2023/12/12 01:43:29;;;;;;;9.00;2.13;;;;;;;;;;5035116;28;20219;-63
2023/12/12 01:46:00;;;;;;;13.10;2.77;;;;;;;;;;5028112;28;20208;-64
2023/12/12 01:48:27;;;;;;;7.17;2.40;;;;;;;;;;5029236;28;20212;-63
2023/12/12 01:50:55;;;;;;;10.57;2.37;;;;;;;;;;5044886;28;20215;-63
2023/12/12 01:53:23;;;;;;;13.77;2.13;;;;;;;;;;5046060;28;20211;-63
2023/12/12 01:55:51;;;;;;;10.43;2.00;;;;;;;;;;5044367;28;20253;-64
2023/12/12 01:58:18;;;;;;;7.47;1.83;;;;;;;;;;5030600;28;20199;-63
2023/12/12 02:00:45;;;;;;;8.40;1.90;;;;;;;;;;5046665;28;20250;-63
2023/12/12 02:03:14;;;;;;;7.40;2.00;;;;;;;;;;5028101;28;20662;-63
2023/12/12 02:05:42;;;;;;;11.23;1.90;;;;;;;;;;5043628;28;20754;-63
2023/12/12 02:08:09;;;;;;;8.00;1.67;;;;;;;;;;5034149;28;20207;-64
2023/12/12 02:10:36;;;;;;;12.30;1.70;;;;;;;;;;5032454;28;20386;-63
2023/12/12 02:13:03;;;;;;;12.60;1.83;;;;;;;;;;5027645;28;21018;-63
2023/12/12 02:15:30;;;;;;;10.77;2.03;;;;;;;;;;5027849;28;20220;-63
2023/12/12 02:17:57;;;;;;;9.67;1.97;;;;;;;;;;5026512;28;20650;-64
2023/12/12 02:20:26;;;;;;;8.83;2.47;;;;;;;;;;5034805;28;20199;-64
2023/12/12 02:22:54;;;;;;;9.27;2.10;;;;;;;;;;5044215;28;20203;-63
2023/12/12 02:25:21;;;;;;;9.57;1.87;;;;;;;;;;5046255;28;20199;-63
2023/12/12 02:27:48;;;;;;;8.03;2.33;;;;;;;;;;5037702;28;20209;-63
2023/12/12 02:30:16;;;;;;;8.07;2.13;;;;;;;;;;5026565;28;20204;-64
2023/12/12 02:32:43;;;;;;;7.77;1.90;;;;;;;;;;5031821;28;20212;-64
2023/12/12 02:35:10;;;;;;;12.60;1.93;;;;;;;;;;5030386;28;20199;-64
2023/12/12 02:37:37;;;;;;;6.10;1.63;;;;;;;;;;5046332;28;20207;-64
2023/12/12 02:40:06;;;;;;;11.00;1.87;;;;;;;;;;5044374;28;20212;-64
2023/12/12 02:42:33;;;;;;;6.33;1.67;;;;;;;;;;5045825;28;20207;-64
2023/12/12 02:45:00;;;;;;;9.30;1.70;;;;;;;;;;5043616;28;20207;-63
2023/12/12 02:47:27;;;;;;;9.60;2.13;;;;;;;;;;5041480;28;20212;-64
2023/12/12 02:49:54;;;;;;;12.57;1.70;;;;;;;;;;5050353;28;20219;-64
2023/12/12 02:52:22;;;;;;;4.47;1.50;;;;;;;;;;5032109;28;20863;-63
2023/12/12 02:54:49;;;;;;;3.77;1.57;;;;;;;;;;5045940;28;20398;-64
2023/12/12 02:57:18;;;;;;;12.10;2.10;;;;;;;;;;5047289;28;20235;-64
2023/12/12 02:59:45;;;;;;;10.73;2.50;;;;;;;;;;5042505;28;20209;-64
2023/12/12 03:02:12;;;;;;;11.60;2.37;;;;;;;;;;5031511;28;20219;-64
2023/12/12 03:04:43;;;;;;;6.33;1.63;;;;;;;;;;5044299;28;20224;-64
2023/12/12 03:07:10;;;;;;;5.53;1.80;;;;;;;;;;5048247;28;20319;-64
2023/12/12 03:09:36;;;;;;;8.27;2.13;;;;;;;;;;5048855;28;20682;-64
2023/12/12 03:12:04;;;;;;;9.10;1.93;;;;;;;;;;5038927;28;20200;-64
2023/12/12 03:14:32;;;;;;;8.13;2.40;;;;;;;;;;5033338;28;20207;-64
2023/12/12 03:16:59;;;;;;;5.90;1.87;;;;;;;;;;5046938;28;20244;-64
2023/12/12 03:19:26;;;;;;;7.73;1.60;;;;;;;;;;5048484;28;20207;-64
2023/12/12 03:21:53;;;;;;;10.77;1.97;;;;;;;;;;5048533;28;20208;-64
2023/12/12 03:24:21;;;;;;;5.87;1.80;;;;;;;;;;5047367;28;20203;-64
2023/12/12 03:26:48;;;;;;;4.43;1.47;;;;;;;;;;5045355;28;20245;-64
2023/12/12 03:29:15;;;;;;;11.07;2.43;;;;;;;;;;5028819;28;20217;-64
2023/12/12 03:31:43;;;;;;;3.93;1.90;;;;;;;;;;5042231;28;20220;-63
2023/12/12 03:34:10;;;;;;;11.60;1.90;;;;;;;;;;5033667;28;20203;-64
2023/12/12 03:36:37;;;;;;;12.37;1.73;;;;;;;;;;5046857;28;20431;-64
2023/12/12 03:39:06;;;;;;;8.53;2.30;;;;;;;;;;5046803;28;20200;-64
2023/12/12 03:41:33;;;;;;;14.00;2.17;;;;;;;;;;5048582;28;20208;-64
2023/12/12 03:44:00;;;;;;;7.67;1.87;;;;;;;;;;5046292;28;20200;-64
2023/12/12 03:46:27;;;;;;;11.70;2.50;;;;;;;;;;5035786;28;20262;-64
2023/12/12 03:48:55;;;;;;;11.13;2.10;;;;;;;;;;5047122;28;20227;-64
2023/12/12 03:51:23;;;;;;;8.60;2.33;;;;;;;;;;5048585;28;20219;-64
2023/12/12 03:53:50;;;;;;;10.53;2.07;;;;;;;;;;5047863;28;20204;-64
2023/12/12 03:56:17;;;;;;;5.80;2.03;;;;;;;;;;5029421;28;20706;-63
2023/12/12 03:58:45;;;;;;;13.63;2.73;;;;;;;;;;5042339;28;20261;-64
2023/12/12 04:01:12;;;;;;;8.63;2.40;;;;;;;;;;5048217;28;20266;-64
2023/12/12 04:03:39;;;;;;;8.17;1.77;;;;;;;;;;5045163;28;20208;-64
2023/12/12 04:06:08;;;;;;;9.70;1.83;;;;;;;;;;5036159;28;20204;-64
2023/12/12 04:08:36;;;;;;;8.80;2.33;;;;;;;;;;5028523;28;20212;-64
2023/12/12 04:11:04;;;;;;;8.43;2.00;;;;;;;;;;5030086;28;20204;-64
2023/12/12 04:13:31;;;;;;;6.20;2.20;;;;;;;;;;5038673;28;20219;-63
2023/12/12 04:15:58;;;;;;;8.73;2.50;;;;;;;;;;5041117;28;20231;-64
2023/12/12 04:18:25;;;;;;;12.50;2.07;;;;;;;;;;5046821;28;20235;-64
2023/12/12 04:20:52;;;;;;;10.33;2.50;;;;;;;;;;5048413;28;20254;-64
2023/12/12 04:23:20;;;;;;;6.40;1.93;;;;;;;;;;5037484;28;20665;-64
2023/12/12 04:25:47;;;;;;;8.27;1.80;;;;;;;;;;5036071;28;20258;-63
2023/12/12 04:28:14;;;;;;;13.37;2.47;;;;;;;;;;5041266;28;20291;-63
2023/12/12 04:30:41;;;;;;;8.80;1.97;;;;;;;;;;5028598;28;20650;-63
2023/12/12 04:33:08;;;;;;;5.90;1.93;;;;;;;;;;5047972;28;20211;-64
2023/12/12 04:35:35;;;;;;;8.97;1.87;;;;;;;;;;5035940;28;20212;-63
2023/12/12 04:38:02;;;;;;;8.73;1.63;;;;;;;;;;5042180;28;20275;-64
2023/12/12 04:40:31;;;;;;;6.80;2.03;;;;;;;;;;5030629;28;20212;-64
2023/12/12 04:42:58;;;;;;;8.23;2.03;;;;;;;;;;5043593;28;20207;-64
2023/12/12 04:45:25;;;;;;;9.77;2.20;;;;;;;;;;5047740;28;20857;-64
2023/12/12 04:47:52;;;;;;;10.43;3.37;;;;;;;;;;5047537;28;20218;-64
2023/12/12 04:50:19;;;;;;;13.07;3.43;;;;;;;;;;5029386;28;20208;-63
2023/12/12 04:52:46;;;;;;;13.43;3.20;;;;;;;;;;5036869;28;20199;-63
2023/12/12 04:55:13;;;;;;;11.60;3.40;;;;;;;;;;5043914;28;20211;-63
2023/12/12 04:57:43;;;;;;;12.47;3.43;;;;;;;;;;5028208;28;20256;-64
2023/12/12 05:00:13;;;;;;;8.10;2.67;;;;;;;;;;5037192;28;21004;-64
2023/12/12 05:02:41;;;;;;;8.20;3.17;;;;;;;;;;5046216;28;20214;-64
2023/12/12 05:05:08;;;;;;;9.40;2.63;;;;;;;;;;5047770;28;20745;-64
2023/12/12 05:07:35;;;;;;;10.40;3.70;;;;;;;;;;5044978;28;20666;-64
2023/12/12 05:10:02;;;;;;;14.07;3.10;;;;;;;;;;5045192;28;20826;-63
2023/12/12 05:12:31;;;;;;;7.40;1.97;;;;;;;;;;5046206;28;20207;-64
2023/12/12 05:14:59;;;;;;;7.57;3.13;;;;;;;;;;5045877;28;20207;-64
2023/12/12 05:17:26;;;;;;;6.07;2.50;;;;;;;;;;5035408;28;20232;-64
2023/12/12 05:19:53;;;;;;;5.07;2.17;;;;;;;;;;5047792;28;20214;-64
2023/12/12 05:22:20;;;;;;;13.33;3.33;;;;;;;;;;5047171;28;20207;-62
2023/12/12 05:24:47;;;;;;;5.80;2.30;;;;;;;;;;5047181;28;20630;-63
2023/12/12 05:27:14;;;;;;;7.80;2.40;;;;;;;;;;5047099;28;20204;-63
2023/12/12 05:29:42;;;;;;;8.93;3.30;;;;;;;;;;5045413;28;20227;-63
2023/12/12 05:32:10;;;;;;;16.43;3.20;;;;;;;;;;5047444;28;20581;-63
2023/12/12 05:34:37;;;;;;;13.73;2.83;;;;;;;;;;5047267;28;20208;-63
2023/12/12 05:37:04;;;;;;;12.00;3.20;;;;;;;;;;5044428;28;20234;-63
2023/12/12 05:39:31;;;;;;;10.43;2.83;;;;;;;;;;5045711;28;20208;-63
2023/12/12 05:41:58;;;;;;;11.53;3.03;;;;;;;;;;5039448;28;20200;-63
2023/12/12 05:44:25;;;;;;;11.90;3.37;;;;;;;;;;5028371;28;20663;-62
2023/12/12 05:46:52;;;;;;;16.03;3.27;;;;;;;;;;5037549;28;20304;-63
2023/12/12 05:49:21;;;;;;;8.97;2.60;;;;;;;;;;5041257;28;20854;-63
2023/12/12 05:51:49;;;;;;;10.90;2.70;;;;;;;;;;5035372;28;20721;-62
2023/12/12 05:54:16;;;;;;;5.90;2.80;;;;;;;;;;5045268;28;20200;-63
2023/12/12 05:56:45;;;;;;;9.90;2.83;;;;;;;;;;5043126;28;20225;-63
2023/12/12 05:59:14;;;;;;;10.53;2.53;;;;;;;;;;5039226;28;20211;-63
2023/12/12 06:01:41;;;;;;;8.23;2.30;;;;;;;;;;5037593;28;20634;-63
2023/12/12 06:04:08;;;;;;;10.23;2.77;;;;;;;;;;5041840;28;20199;-63
2023/12/12 06:06:42;;;;;;;11.20;2.77;;;;;;;;;;5031145;28;20257;-63
2023/12/12 06:09:10;;;;;;;9.97;2.03;;;;;;;;;;5046209;28;20234;-64
2023/12/12 06:11:37;;;;;;;7.70;2.57;;;;;;;;;;5031468;28;20287;-64
2023/12/12 06:14:05;;;;;;;2.50;2.30;;;;;;;;;;5026639;28;20311;-64
2023/12/12 06:16:32;;;;;;;9.63;2.53;;;;;;;;;;5030288;28;20244;-64
2023/12/12 06:18:59;;;;;;;17.03;2.80;;;;;;;;;;5030011;28;20950;-64
2023/12/12 06:21:26;;;;;;;14.60;2.67;;;;;;;;;;5027299;28;20677;-64
2023/12/12 06:23:55;;;;;;;5.93;1.83;;;;;;;;;;5026582;28;20208;-64
2023/12/12 06:26:21;;;;;;;11.83;2.77;;;;;;;;;;5026826;28;20254;-64
2023/12/12 06:28:48;;;;;;;11.13;2.83;;;;;;;;;;5027928;28;20204;-64
2023/12/12 06:31:15;;;;;;;13.70;2.73;;;;;;;;;;5033971;28;20207;-64
2023/12/12 06:33:42;;;;;;;10.93;2.50;;;;;;;;;;5038671;28;20215;-67
2023/12/12 06:36:10;;;;;;;8.43;2.80;;;;;;;;;;5026853;28;20200;-64
2023/12/12 06:38:37;;;;;;;13.80;3.00;;;;;;;;;;5026761;28;20327;-64
2023/12/12 06:41:06;;;;;;;7.03;2.93;;;;;;;;;;5023053;28;20215;-63
2023/12/12 06:43:33;;;;;;;8.77;2.60;;;;;;;;;;5026574;28;20216;-64
2023/12/12 06:46:00;;;;;;;9.27;2.67;;;;;;;;;;5036866;28;20227;-64
2023/12/12 06:48:27;;;;;;;10.70;2.83;;;;;;;;;;5045962;28;20210;-63
2023/12/12 06:50:54;;;;;;;11.87;2.90;;;;;;;;;;5044798;28;20298;-64
2023/12/12 06:53:21;;;;;;;7.93;3.07;;;;;;;;;;5037877;28;20219;-64
2023/12/12 06:55:48;;;;;;;9.03;2.80;;;;;;;;;;5025902;28;20220;-63
2023/12/12 06:58:17;;;;;;;12.17;2.50;;;;;;;;;;5036495;28;20234;-63
2023/12/12 07:00:45;;;;;;;10.23;2.83;;;;;;;;;;5034963;28;20282;-63
2023/12/12 07:03:12;;;;;;;8.20;2.37;;;;;;;;;;5045875;28;20216;-65
2023/12/12 07:05:39;;;;;;;9.90;2.50;;;;;;;;;;5026588;28;20208;-63
2023/12/12 07:08:06;;;;;;;11.33;2.30;;;;;;;;;;5025596;28;20208;-62
2023/12/12 07:10:33;;;;;;;8.60;2.90;;;;;;;;;;5037582;28;20211;-63
2023/12/12 07:13:00;;;;;;;11.80;2.83;;;;;;;;;;5040058;28;20292;-64
2023/12/12 07:15:29;;;;;;;12.73;2.67;;;;;;;;;;5025757;28;20224;-64
2023/12/12 07:17:56;;;;;;;8.50;2.47;;;;;;;;;;5025448;28;20232;-64
2023/12/12 07:20:23;;;;;;;12.63;2.50;;;;;;;;;;5025734;28;20212;-64
2023/12/12 07:22:50;;;;;;;7.97;2.87;;;;;;;;;;5025591;28;20212;-64
2023/12/12 07:25:17;;;;;;;5.10;2.30;;;;;;;;;;5025549;28;20219;-64
2023/12/12 07:27:44;;;;;;;11.10;3.23;;;;;;;;;;5025659;28;20223;-64
2023/12/12 07:30:12;;;;;;;7.13;2.97;;;;;;;;;;5029741;28;20222;-68
2023/12/12 07:32:40;;;;;;;7.30;2.80;;;;;;;;;;5046171;28;20216;-64
2023/12/12 07:35:08;;;;;;;6.30;2.80;;;;;;;;;;5048871;28;20302;-63
2023/12/12 07:37:35;;;;;;;11.73;3.23;;;;;;;;;;5048818;28;20227;-64
2023/12/12 07:40:04;;;;;;;7.93;2.97;;;;;;;;;;5048650;28;20215;-63
2023/12/12 07:42:31;;;;;;;4.17;2.77;;;;;;;;;;5048987;28;20204;-64
2023/12/12 07:44:58;;;;;;;6.83;2.60;;;;;;;;;;5048420;28;20208;-64
2023/12/12 07:47:25;;;;;;;5.27;2.13;;;;;;;;;;5048820;28;20207;-64
2023/12/12 07:49:54;;;;;;;8.77;2.87;;;;;;;;;;5048424;28;20239;-64
2023/12/12 07:52:21;;;;;;;5.93;2.67;;;;;;;;;;5045611;28;20206;-64
2023/12/12 07:54:48;;;;;;;6.17;3.60;;;;;;;;;;5048248;28;20294;-64
2023/12/12 07:57:16;;;;;;;5.80;2.20;;;;;;;;;;5048389;28;20643;-64
2023/12/12 07:59:44;;;;;;;10.63;3.73;;;;;;;;;;5046940;28;20211;-64
2023/12/12 08:02:11;;;;;;;10.73;3.33;;;;;;;;;;5048432;28;20285;-64
2023/12/12 08:04:38;;;;;;;9.53;3.53;;;;;;;;;;5048123;28;20253;-64
2023/12/12 08:07:07;;;;;;;9.00;3.73;;;;;;;;;;5048410;28;20208;-64
2023/12/12 08:09:34;;;;;;;11.53;3.53;;;;;;;;;;5046775;28;20270;-63
2023/12/12 08:12:01;;;;;;;9.57;3.47;;;;;;;;;;5048080;28;20692;-63
2023/12/12 08:14:28;;;;;;;16.60;3.77;;;;;;;;;;5048051;28;20222;-64
2023/12/12 08:16:55;;;;;;;12.37;3.60;;;;;;;;;;5047564;28;20247;-63
2023/12/12 08:19:22;;;;;;;16.80;4.20;;;;;;;;;;5048056;28;20727;-63
2023/12/12 08:21:50;;;;;;;10.90;4.77;;;;;;;;;;5047919;28;20212;-64
2023/12/12 08:24:18;;;;;;;11.50;3.37;;;;;;;;;;5047981;28;20241;-63
2023/12/12 08:26:46;;;;;;;11.43;3.33;;;;;;;;;;5048212;28;20367;-64
2023/12/12 08:29:14;;;;;;;12.40;3.90;;;;;;;;;;5043604;28;20294;-64
2023/12/12 08:31:41;;;;;;;11.93;4.43;;;;;;;;;;5029880;28;20214;-64
2023/12/12 08:34:08;;;;;;;15.97;3.93;;;;;;;;;;5031924;28;20219;-64
2023/12/12 08:36:34;;;;;;;11.80;3.63;;;;;;;;;;5027870;28;20232;-63
2023/12/12 08:39:02;;;;;;;10.23;3.90;;;;;;;;;;5027647;28;20228;-64
2023/12/12 08:41:30;;;;;;;13.27;4.03;;;;;;;;;;5027727;28;20212;-64
2023/12/12 08:43:58;;;;;;;11.40;3.50;;;;;;;;;;5027309;28;20216;-64
2023/12/12 08:46:26;;;;;;;11.33;4.23;;;;;;;;;;5037737;28;20196;-64
2023/12/12 08:48:54;;;;;;;12.80;4.07;;;;;;;;;;5047311;28;20235;-65
2023/12/12 08:51:21;;;;;;;17.03;5.27;;;;;;;;;;5047168;28;20690;-62
2023/12/12 08:53:47;;;;;;;11.73;4.00;;;;;;;;;;5045368;28;20319;-62
2023/12/12 08:56:16;;;;;;;13.90;4.47;;;;;;;;;;5046429;28;20207;-62
2023/12/12 08:58:44;;;;;;;10.20;3.80;;;;;;;;;;5046505;28;20708;-64
2023/12/12 09:01:11;;;;;;;9.53;3.90;;;;;;;;;;5044855;28;20593;-63
2023/12/12 09:03:38;;;;;;;11.00;5.53;;;;;;;;;;5045314;28;20210;-64
2023/12/12 09:06:05;;;;;;;8.93;4.07;;;;;;;;;;5043142;28;20215;-67
2023/12/12 09:08:32;;;;;;;15.23;4.90;;;;;;;;;;5045832;28;20210;-69
2023/12/12 09:10:59;;;;;;;10.77;5.27;;;;;;;;;;5045997;28;20230;-67
2023/12/12 09:13:26;;;;;;;15.47;6.03;;;;;;;;;;5044934;28;20273;-70
2023/12/12 09:15:55;;;;;;;11.60;4.30;;;;;;;;;;5046080;28;20257;-69
2023/12/12 09:18:22;;;;;;;15.97;5.30;;;;;;;;;;5045823;28;20359;-71
2023/12/12 09:20:50;;;;;;;10.03;4.07;;;;;;;;;;5045308;28;20424;-69
2023/12/12 09:23:17;;;;;;;23.13;8.00;;;;;;;;;;5040883;28;20208;-64
2023/12/12 09:25:45;;;;;;;16.17;6.10;;;;;;;;;;5039801;28;20208;-65
2023/12/12 09:28:12;;;;;;;13.73;5.63;;;;;;;;;;5046155;28;20258;-65
2023/12/12 09:30:39;;;;;;;13.80;5.00;;;;;;;;;;5038656;28;20204;-65
2023/12/12 09:33:08;;;;;;;14.93;5.43;;;;;;;;;;5041454;28;20220;-65
2023/12/12 09:35:36;;;;;;;16.97;4.27;;;;;;;;;;5036538;28;20209;-63
2023/12/12 09:38:03;;;;;;;12.90;4.10;;;;;;;;;;5034631;28;20326;-63
2023/12/12 09:40:31;;;;;;;9.67;4.40;;;;;;;;;;5045047;28;20579;-64
2023/12/12 09:42:58;;;;;;;19.70;5.10;;;;;;;;;;5041837;28;20211;-63
2023/12/12 09:45:26;;;;;;;15.83;5.10;;;;;;;;;;5046136;28;20203;-66
2023/12/12 09:47:56;;;;;;;13.83;4.97;;;;;;;;;;5045634;28;20215;-66
2023/12/12 09:50:24;;;;;;;16.57;5.13;;;;;;;;;;5043926;28;20223;-66
2023/12/12 09:52:52;;;;;;;7.43;3.93;;;;;;;;;;5044736;28;20472;-66
2023/12/12 09:55:22;;;;;;;10.03;3.70;;;;;;;;;;5045882;28;20303;-66
2023/12/12 09:57:49;;;;;;;14.03;4.20;;;;;;;;;;5045289;28;20223;-65
2023/12/12 10:00:18;;;;;;;8.80;3.83;;;;;;;;;;5045578;28;20212;-66
2023/12/12 10:02:45;;;;;;;9.80;3.40;;;;;;;;;;5045897;28;20219;-66
2023/12/12 10:05:12;;;;;;;11.10;3.63;;;;;;;;;;5046099;28;20211;-66
2023/12/12 10:07:41;;;;;;;6.67;2.93;;;;;;;;;;5030819;28;20200;-65
2023/12/12 10:10:13;;;;;;;7.67;3.10;;;;;;;;;;5026173;28;20208;-66
2023/12/12 10:12:40;;;;;;;7.97;3.10;;;;;;;;;;5026075;28;20216;-65
2023/12/12 10:15:21;;;;;;;13.43;4.00;;;;;;;;;;5026193;28;20306;-64
2023/12/12 10:17:48;;;;;;;13.67;3.63;;;;;;;;;;5033169;28;20312;-66
2023/12/12 10:20:25;;;;;;;11.47;3.97;;;;;;;;;;5045794;28;20624;-66
2023/12/12 10:22:53;;;;;;;10.03;2.50;;;;;;;;;;5045889;28;20210;-66
2023/12/12 10:25:22;;;;;;;7.40;3.10;;;;;;;;;;5045743;28;20386;-66
2023/12/12 10:27:52;;;;;;;9.17;3.03;;;;;;;;;;5045718;28;20744;-65
2023/12/12 10:30:19;;;;;;;9.80;3.70;;;;;;;;;;5045483;28;20211;-65
2023/12/12 10:32:46;;;;;;;12.07;3.23;;;;;;;;;;5045667;28;20277;-66
2023/12/12 10:35:13;;;;;;;9.90;3.50;;;;;;;;;;5045533;28;20215;-66
2023/12/12 10:37:40;;;;;;;9.07;3.40;;;;;;;;;;5045080;28;20219;-66
2023/12/12 10:40:16;;;;;;;9.03;3.27;;;;;;;;;;5032592;28;20238;-67
2023/12/12 10:42:46;;;;;;;15.53;3.83;;;;;;;;;;5045726;28;20207;-67
2023/12/12 10:45:13;;;;;;;7.23;3.27;;;;;;;;;;5044542;28;20207;-66
2023/12/12 10:47:47;;;;;;;14.23;3.60;;;;;;;;;;5044746;28;20265;-66
2023/12/12 10:50:15;;;;;;;9.40;3.27;;;;;;;;;;5043268;28;20276;-65
2023/12/12 10:52:43;;;;;;;13.23;3.93;;;;;;;;;;5037759;28;20211;-64
2023/12/12 10:55:11;;;;;;;11.57;3.53;;;;;;;;;;5025889;28;20311;-64
2023/12/12 10:57:41;;;;;;;12.03;3.73;;;;;;;;;;5032770;28;20200;-65
2023/12/12 11:00:12;;;;;;;13.00;3.40;;;;;;;;;;5030453;28;20232;-64
2023/12/12 11:02:40;;;;;;;5.50;2.37;;;;;;;;;;5041265;28;20215;-65
2023/12/12 11:05:08;;;;;;;11.47;3.00;;;;;;;;;;5044311;28;20286;-65
2023/12/12 11:07:35;;;;;;;8.90;2.90;;;;;;;;;;5045884;28;20242;-65
2023/12/12 11:10:04;;;;;;;8.27;3.10;;;;;;;;;;5045816;28;20211;-65
2023/12/12 11:12:31;;;;;;;11.67;3.00;;;;;;;;;;5039854;28;20204;-65
2023/12/12 11:15:00;;;;;;;9.53;2.60;;;;;;;;;;5035272;28;20211;-65
2023/12/12 11:17:28;;;;;;;6.33;3.13;;;;;;;;;;5031944;28;20330;-65
2023/12/12 11:19:56;;;;;;;8.37;3.80;;;;;;;;;;5045367;28;20227;-65
2023/12/12 11:22:48;;;;;;;12.27;3.70;;;;;;;;;;5041719;28;20212;-65
2023/12/12 11:25:16;;;;;;;12.23;3.27;;;;;;;;;;5015416;28;20212;-65
2023/12/12 11:27:46;;;;;;;8.13;3.50;;;;;;;;;;5035146;28;20227;-65
2023/12/12 11:30:14;;;;;;;9.23;3.57;;;;;;;;;;5028666;28;20354;-65
2023/12/12 11:32:42;;;;;;;9.43;3.90;;;;;;;;;;5038917;28;20250;-65
2023/12/12 11:35:25;;;;;;;8.90;3.60;;;;;;;;;;5037478;28;20299;-67
2023/12/12 11:37:54;;;;;;;17.93;6.53;;;;;;;;;;5030481;28;20314;-65
2023/12/12 11:40:22;;;;;;;8.10;4.70;;;;;;;;;;5047579;28;20334;-65
2023/12/12 11:42:52;;;;;;;8.67;3.90;;;;;;;;;;5029289;28;20303;-65
2023/12/12 11:45:33;;;;;;;13.53;3.77;;;;;;;;;;5041988;28;20750;-65
2023/12/12 11:48:02;;;;;;;11.43;4.83;;;;;;;;;;5046102;28;20208;-65
2023/12/12 11:50:31;;;;;;;11.93;4.43;;;;;;;;;;5047486;28;20737;-65
2023/12/12 11:52:58;;;;;;;10.93;3.77;;;;;;;;;;5047654;28;20204;-65
2023/12/12 11:55:29;;;;;;;7.07;3.60;;;;;;;;;;5040350;28;20208;-65
2023/12/12 11:57:59;;;;;;;10.10;3.67;;;;;;;;;;5043928;28;20199;-65
2023/12/12 12:00:26;;;;;;;13.33;4.23;;;;;;;;;;5041711;28;20765;-64
2023/12/12 12:02:54;;;;;;;9.20;4.27;;;;;;;;;;5039201;28;20208;-64
2023/12/12 12:05:21;;;;;;;12.73;4.60;;;;;;;;;;5043629;28;20242;-67
2023/12/12 12:07:49;;;;;;;15.07;4.10;;;;;;;;;;5038467;28;20882;-67
2023/12/12 12:10:16;;;;;;;13.63;5.83;;;;;;;;;;5034279;28;20206;-65
2023/12/12 12:12:51;;;;;;;10.33;3.83;;;;;;;;;;5043330;28;20235;-65
2023/12/12 12:15:18;;;;;;;10.50;3.20;;;;;;;;;;5043208;28;20203;-66
2023/12/12 12:17:45;;;;;;;11.30;4.17;;;;;;;;;;5046204;28;20239;-66
2023/12/12 12:20:13;;;;;;;10.07;4.53;;;;;;;;;;5030809;28;20254;-65
2023/12/12 12:22:40;;;;;;;10.30;4.57;;;;;;;;;;5029420;28;20295;-64
2023/12/12 12:25:08;;;;;;;12.20;5.97;;;;;;;;;;5038202;28;20291;-65
2023/12/12 12:27:35;;;;;;;18.13;7.27;;;;;;;;;;5046880;28;20269;-65
2023/12/12 12:30:06;;;;;;;17.93;7.53;;;;;;;;;;5028502;28;20208;-66
2023/12/12 12:32:33;;;;;;;14.53;7.73;;;;;;;;;;5042126;28;20591;-64
2023/12/12 12:35:07;;;;;;;12.93;7.73;;;;;;;;;;5046086;28;20756;-65
2023/12/12 12:37:36;;;;;;;8.70;5.43;;;;;;;;;;5044711;28;20288;-65
2023/12/12 12:40:05;;;;;;;9.37;4.80;;;;;;;;;;5036180;28;20223;-65
2023/12/12 12:42:33;;;;;;;7.10;3.50;;;;;;;;;;5046516;28;20211;-64
2023/12/12 12:45:00;;;;;;;7.43;4.20;;;;;;;;;;5029758;28;20212;-63
2023/12/12 12:47:27;;;;;;;11.40;4.07;;;;;;;;;;5035023;28;20204;-65
2023/12/12 12:49:54;;;;;;;9.83;4.43;;;;;;;;;;5033720;28;20201;-64
2023/12/12 12:52:21;;;;;;;9.17;3.70;;;;;;;;;;5038323;28;20270;-64
2023/12/12 12:54:49;;;;;;;7.23;3.53;;;;;;;;;;5034802;28;20216;-65
2023/12/12 12:57:16;;;;;;;6.17;3.70;;;;;;;;;;5028597;28;20208;-65
2023/12/12 12:59:43;;;;;;;8.17;3.80;;;;;;;;;;5030032;28;20357;-65
2023/12/12 13:02:11;;;;;;;9.87;8.83;;;;;;;;;;5038847;28;20204;-64
2023/12/12 13:04:40;;;;;;;7.80;4.30;;;;;;;;;;5030066;28;20212;-64
2023/12/12 13:07:07;;;;;;;8.00;5.97;;;;;;;;;;5043600;28;20267;-65
2023/12/12 13:09:34;;;;;;;8.67;5.10;;;;;;;;;;5035515;28;20209;-65
2023/12/12 13:12:03;;;;;;;9.17;5.20;;;;;;;;;;5036392;28;20207;-64
2023/12/12 13:14:30;;;;;;;6.53;4.27;;;;;;;;;;5037139;28;20623;-66
2023/12/12 13:16:57;;;;;;;9.73;4.30;;;;;;;;;;5029696;28;20286;-66
2023/12/12 13:19:26;;;;;;;3.70;3.10;;;;;;;;;;5038126;28;20239;-64
2023/12/12 13:21:54;;;;;;;6.03;3.20;;;;;;;;;;5045984;28;20585;-66
2023/12/12 13:24:22;;;;;;;4.17;2.73;;;;;;;;;;5036457;28;20199;-65
2023/12/12 13:26:49;;;;;;;3.23;2.70;;;;;;;;;;5033826;28;20222;-65
2023/12/12 13:29:17;;;;;;;5.77;3.60;;;;;;;;;;5035613;28;20207;-63
2023/12/12 13:31:44;;;;;;;5.67;4.33;;;;;;;;;;5036668;28;20220;-64
2023/12/12 13:34:11;;;;;;;6.07;4.70;;;;;;;;;;5032338;28;20228;-64
2023/12/12 13:36:40;;;;;;;5.23;4.60;;;;;;;;;;5040867;28;20303;-64
2023/12/12 13:39:12;;;;;;;4.83;3.53;;;;;;;;;;5032668;28;20219;-65
2023/12/12 13:41:39;;;;;;;11.00;6.90;;;;;;;;;;5043344;28;20298;-64
2023/12/12 13:44:06;;;;;;;5.03;4.40;;;;;;;;;;5035954;28;20291;-64
2023/12/12 13:46:35;;;;;;;7.03;3.90;;;;;;;;;;5028674;28;20207;-64
2023/12/12 13:49:02;;;;;;;3.37;3.10;;;;;;;;;;5042498;28;20208;-64
2023/12/12 13:51:29;;;;;;;15.50;7.83;;;;;;;;;;5038684;28;20209;-63
2023/12/12 13:53:56;;;;;;;11.30;7.20;;;;;;;;;;5028204;28;20216;-65
2023/12/12 13:56:24;;;;;;;7.13;5.00;;;;;;;;;;5038463;28;20792;-65
2023/12/12 13:58:51;;;;;;;6.07;4.40;;;;;;;;;;5026654;28;20211;-64
2023/12/12 14:01:18;;;;;;;7.37;4.33;;;;;;;;;;5037735;28;20207;-64
2023/12/12 14:03:46;;;;;;;5.07;4.17;;;;;;;;;;5033077;28;20212;-64
2023/12/12 14:06:13;;;;;;;4.47;2.93;;;;;;;;;;5026477;28;20227;-64
2023/12/12 14:08:40;;;;;;;5.73;3.70;;;;;;;;;;5032644;28;20876;-64
2023/12/12 14:11:07;;;;;;;5.00;2.80;;;;;;;;;;5031521;28;20211;-65
2023/12/12 14:13:34;;;;;;;3.90;2.73;;;;;;;;;;5026907;28;20241;-64
2023/12/12 14:16:02;;;;;;;3.07;2.77;;;;;;;;;;5038585;28;20223;-65
2023/12/12 14:18:29;;;;;;;3.40;2.80;;;;;;;;;;5039060;28;20977;-64
2023/12/12 14:20:57;;;;;;;3.77;2.23;;;;;;;;;;5044931;28;20226;-65
2023/12/12 14:23:25;;;;;;;8.47;3.10;;;;;;;;;;5025885;28;20211;-64
2023/12/12 14:25:52;;;;;;;2.80;2.60;;;;;;;;;;5027069;28;20223;-65
2023/12/12 14:28:19;;;;;;;4.20;2.30;;;;;;;;;;5027588;28;20733;-64
2023/12/12 14:30:46;;;;;;;3.33;2.87;;;;;;;;;;5026299;28;20205;-64
2023/12/12 14:33:13;;;;;;;3.67;3.37;;;;;;;;;;5032960;28;20231;-65
2023/12/12 14:35:40;;;;;;;5.83;2.83;;;;;;;;;;5043842;28;20210;-65
2023/12/12 14:38:09;;;;;;;3.77;3.10;;;;;;;;;;5039957;28;20208;-64